Terminal Aerodrome Forecast
Issued by NWS

Home | Current Version | Previous Version | Text Only | Print | Product List | Glossary On
Versions: 1 2 3 4 5 6 7 8 9 10 11 12
000
FTUS42 TJSJ 241720
TAFKPK
TAF
TKPK 241720Z 2418/2518 08015KT P6SM VCSH SCT019 BKN035
     FM242300 09012KT P6SM FEW019 SCT050
     FM250800 09009KT P6SM VCSH SCT019 BKN035
     FM251450 08014KT P6SM FEW020 SCT050
      AMD NOT SKED 2502/2511=

USA.gov is the U.S. government's official web portal to all federal, state and local government web resources and services.